Time;durP1;ratioP1;P1;durP2;ratioP2;P2;SDS_P1;SDS_P2;PMS_P1;PMS_P2;Temp;Humidity;BMP_temperature;BMP_pressure;BME280_temperature;BME280_humidity;BME280_pressure;Samples;Min_cycle;Max_cycle;Signal;HPM_P1;HPM_P2
2023/10/28 00:00:04;;;;;;;6.53;2.60;;;;;;;19.20;53.38;93890.03;4998475;28;20338;-66
2023/10/28 00:02:30;;;;;;;6.03;2.20;;;;;;;19.22;53.38;93900.44;4994261;28;20227;-66
2023/10/28 00:04:55;;;;;;;4.35;2.33;;;;;;;19.18;53.47;93894.78;5002929;28;20216;-66
2023/10/28 00:07:21;;;;;;;4.28;2.13;;;;;;;19.07;54.03;93927.56;4999256;28;20183;-66
2023/10/28 00:09:46;;;;;;;7.18;2.42;;;;;;;19.06;53.98;93909.94;4998103;28;20234;-66
2023/10/28 00:12:14;;;;;;;4.03;2.50;;;;;;;19.11;53.94;93926.06;4997472;28;20219;-66
2023/10/28 00:14:40;;;;;;;3.95;1.95;;;;;;;19.07;53.58;93916.91;4998781;28;20227;-66
2023/10/28 00:17:05;;;;;;;6.18;2.55;;;;;;;19.03;54.20;93913.91;4996322;28;20219;-66
2023/10/28 00:19:31;;;;;;;6.68;2.35;;;;;;;18.94;54.24;93920.59;5000653;28;20188;-66
2023/10/28 00:21:56;;;;;;;4.28;2.25;;;;;;;19.00;54.19;93910.88;4997618;28;20219;-66
2023/10/28 00:24:22;;;;;;;5.88;2.63;;;;;;;18.93;54.42;93935.78;4999521;28;20278;-66
2023/10/28 00:26:47;;;;;;;4.07;2.08;;;;;;;18.83;54.55;93914.22;5001469;28;20217;-66
2023/10/28 00:29:13;;;;;;;5.90;2.70;;;;;;;18.81;54.74;93926.16;5000104;28;20211;-65
2023/10/28 00:31:38;;;;;;;5.22;2.35;;;;;;;18.75;55.21;93927.06;5005544;28;20216;-65
2023/10/28 00:34:05;;;;;;;3.92;2.50;;;;;;;18.79;55.02;93923.72;5004939;28;20225;-65
2023/10/28 00:36:30;;;;;;;5.13;2.75;;;;;;;18.73;55.15;93927.25;4998734;28;20215;-65
2023/10/28 00:38:56;;;;;;;5.22;2.40;;;;;;;18.70;54.75;93917.06;4997654;28;20223;-65
2023/10/28 00:41:21;;;;;;;4.72;2.60;;;;;;;18.68;54.93;93943.94;4995770;28;20313;-65
2023/10/28 00:43:48;;;;;;;5.18;2.55;;;;;;;18.51;55.29;93935.78;5009792;28;20253;-66
2023/10/28 00:46:14;;;;;;;5.72;2.78;;;;;;;18.56;55.31;93926.31;4996023;28;20182;-65
2023/10/28 00:48:40;;;;;;;3.83;2.45;;;;;;;18.57;55.18;93936.72;4999949;28;20254;-65
2023/10/28 00:51:06;;;;;;;3.95;2.42;;;;;;;18.61;55.21;93943.22;5001095;28;20222;-65
2023/10/28 00:53:32;;;;;;;4.10;2.33;;;;;;;18.67;54.81;93942.28;4999054;28;20234;-65
2023/10/28 00:55:59;;;;;;;4.55;2.30;;;;;;;18.63;55.38;93948.28;5000947;28;20192;-66
2023/10/28 00:58:24;;;;;;;8.98;3.10;;;;;;;18.53;55.73;93946.19;4995712;28;20187;-65
2023/10/28 01:00:50;;;;;;;5.65;3.03;;;;;;;18.54;55.49;93947.00;5003784;28;20226;-66
2023/10/28 01:03:16;;;;;;;5.80;2.67;;;;;;;18.41;56.13;93934.69;4997621;28;20234;-65
2023/10/28 01:05:41;;;;;;;5.68;2.80;;;;;;;18.48;56.07;93938.09;4997967;28;20226;-65
2023/10/28 01:08:09;;;;;;;6.93;2.85;;;;;;;18.45;56.16;93947.34;4998141;28;20242;-65
2023/10/28 01:10:35;;;;;;;4.82;2.70;;;;;;;18.42;56.27;93939.81;4993688;28;20249;-65
2023/10/28 01:13:04;;;;;;;5.75;3.08;;;;;;;18.35;56.42;93939.06;4998100;28;20217;-67
2023/10/28 01:15:29;;;;;;;5.97;2.85;;;;;;;18.38;56.38;93953.78;4998068;28;20245;-66
2023/10/28 01:17:57;;;;;;;4.32;2.33;;;;;;;18.26;56.74;93945.75;4998837;28;20242;-65
2023/10/28 01:20:22;;;;;;;5.25;2.60;;;;;;;18.32;56.51;93931.53;4998747;28;20227;-66
2023/10/28 01:22:48;;;;;;;4.05;2.72;;;;;;;18.33;56.73;93954.44;4997902;28;20183;-66
2023/10/28 01:25:13;;;;;;;7.40;2.72;;;;;;;18.30;56.50;93958.38;5002332;28;20187;-66
2023/10/28 01:27:39;;;;;;;4.30;2.47;;;;;;;18.17;56.99;93947.09;4996162;28;20241;-67
2023/10/28 01:30:06;;;;;;;6.13;2.78;;;;;;;18.25;56.52;93954.75;4997454;28;20211;-67
2023/10/28 01:32:31;;;;;;;5.90;2.50;;;;;;;18.24;56.62;93951.28;5005203;28;20219;-66
2023/10/28 01:34:58;;;;;;;4.95;2.42;;;;;;;18.23;56.65;93946.19;4996349;28;20645;-66
2023/10/28 01:37:23;;;;;;;6.50;2.72;;;;;;;18.13;57.19;93952.06;4998128;28;20191;-66
2023/10/28 01:39:52;;;;;;;4.13;2.35;;;;;;;18.22;56.98;93949.91;4994830;28;20211;-65
2023/10/28 01:42:22;;;;;;;3.65;2.63;;;;;;;18.24;56.89;93945.16;4993530;28;20242;-65
2023/10/28 01:44:48;;;;;;;5.78;2.70;;;;;;;18.02;57.52;93945.66;5008433;28;20266;-66
2023/10/28 01:47:14;;;;;;;5.10;2.38;;;;;;;18.13;57.05;93948.59;4997789;28;20223;-65
2023/10/28 01:49:42;;;;;;;6.03;2.55;;;;;;;18.14;56.90;93937.72;4995657;28;20279;-65
2023/10/28 01:52:09;;;;;;;4.82;2.83;;;;;;;18.18;56.81;93933.56;4996631;28;20242;-65
2023/10/28 01:54:35;;;;;;;5.80;2.80;;;;;;;18.24;56.59;93948.63;5010366;28;20219;-65
2023/10/28 01:57:06;;;;;;;5.45;2.55;;;;;;;18.21;57.04;93948.28;4997977;28;20277;-66
2023/10/28 01:59:36;;;;;;;5.43;2.58;;;;;;;18.18;57.09;93944.22;5001916;28;20311;-65
2023/10/28 02:02:02;;;;;;;5.40;2.55;;;;;;;18.15;57.14;93944.69;4998867;28;20198;-65
2023/10/28 02:04:29;;;;;;;4.20;2.83;;;;;;;18.15;57.04;93944.69;5007224;28;20258;-65
2023/10/28 02:06:54;;;;;;;4.53;2.40;;;;;;;18.22;56.68;93952.56;4998943;28;20227;-65
2023/10/28 02:09:20;;;;;;;3.25;2.10;;;;;;;18.20;56.62;93949.31;4999976;28;20219;-66
2023/10/28 02:11:47;;;;;;;6.50;2.90;;;;;;;18.24;56.64;93955.81;5000318;28;20222;-67
2023/10/28 02:14:13;;;;;;;3.90;2.10;;;;;;;18.24;56.61;93953.16;5004875;28;20218;-66
2023/10/28 02:16:39;;;;;;;4.88;2.47;;;;;;;18.23;56.80;93963.00;4998679;28;20186;-66
2023/10/28 02:19:05;;;;;;;6.25;2.50;;;;;;;18.26;56.70;93973.19;4997766;28;20219;-66
2023/10/28 02:21:31;;;;;;;5.10;2.45;;;;;;;18.08;57.35;93966.03;4996793;28;20218;-66
2023/10/28 02:23:57;;;;;;;6.20;2.90;;;;;;;18.06;57.59;93973.41;5004467;28;20262;-66
2023/10/28 02:26:22;;;;;;;4.20;2.47;;;;;;;17.97;57.83;93982.75;5003923;28;20216;-66
2023/10/28 02:28:48;;;;;;;5.93;2.75;;;;;;;17.78;58.58;93976.59;4998780;28;20191;-66
2023/10/28 02:31:13;;;;;;;8.38;3.60;;;;;;;17.64;59.18;93975.06;5000730;28;20183;-66
2023/10/28 02:33:39;;;;;;;6.93;3.22;;;;;;;17.72;58.78;93972.16;5004880;28;20211;-64
2023/10/28 02:36:11;;;;;;;6.32;2.55;;;;;;;17.79;58.78;93972.09;4998090;28;20306;-66
2023/10/28 02:38:36;;;;;;;4.68;2.60;;;;;;;17.82;58.48;93979.63;4997622;28;20235;-65
2023/10/28 02:41:05;;;;;;;7.70;2.88;;;;;;;17.70;59.11;93971.56;4999854;28;20242;-64
2023/10/28 02:43:31;;;;;;;6.53;2.90;;;;;;;17.71;58.98;93981.16;5001992;28;20206;-65
2023/10/28 02:45:56;;;;;;;9.13;3.17;;;;;;;17.71;59.22;93967.06;4996565;28;20219;-65
2023/10/28 02:48:21;;;;;;;6.57;3.30;;;;;;;17.72;59.21;93966.00;5005904;28;20229;-65
2023/10/28 02:50:47;;;;;;;7.95;3.00;;;;;;;17.59;59.34;93969.63;5000216;28;20286;-65
2023/10/28 02:53:12;;;;;;;5.47;2.90;;;;;;;17.54;59.85;93964.97;5002296;28;20242;-65
2023/10/28 02:55:38;;;;;;;7.50;3.15;;;;;;;17.54;59.79;93975.59;5002760;28;20187;-64
2023/10/28 02:58:04;;;;;;;4.80;3.15;;;;;;;17.55;59.78;93979.88;4996465;28;20223;-65
2023/10/28 03:00:30;;;;;;;5.25;3.00;;;;;;;17.59;59.61;93975.75;4999196;28;20216;-65
2023/10/28 03:02:57;;;;;;;5.50;3.03;;;;;;;17.60;59.64;93973.91;4998978;28;20243;-66
2023/10/28 03:05:24;;;;;;;8.43;3.65;;;;;;;17.55;59.93;93982.53;4998034;28;20223;-65
2023/10/28 03:07:50;;;;;;;5.32;3.08;;;;;;;17.48;59.97;93968.53;4998286;28;20187;-66
2023/10/28 03:10:16;;;;;;;7.15;2.75;;;;;;;17.51;60.00;93970.75;4995801;28;20182;-65
2023/10/28 03:12:41;;;;;;;6.70;3.35;;;;;;;17.44;59.99;93974.50;4998166;28;20211;-65
2023/10/28 03:15:09;;;;;;;6.85;3.35;;;;;;;17.19;61.22;93986.75;4993285;28;20215;-65
2023/10/28 03:17:34;;;;;;;8.02;2.90;;;;;;;17.20;61.24;93982.25;4999149;28;20601;-65
2023/10/28 03:20:00;;;;;;;10.05;3.63;;;;;;;17.06;61.56;93984.22;5001973;28;20226;-66
2023/10/28 03:22:25;;;;;;;7.65;3.53;;;;;;;17.03;61.76;93984.66;5000696;28;20206;-65
2023/10/28 03:24:51;;;;;;;6.47;3.47;;;;;;;17.05;61.62;93985.22;4998514;28;20231;-65
2023/10/28 03:27:17;;;;;;;7.60;3.38;;;;;;;17.19;61.37;93988.63;4998640;28;20303;-65
2023/10/28 03:29:45;;;;;;;6.13;3.60;;;;;;;17.23;61.39;93999.59;5000238;28;20231;-65
2023/10/28 03:32:11;;;;;;;8.93;3.53;;;;;;;17.30;60.92;94005.69;4995731;28;20234;-65
2023/10/28 03:34:36;;;;;;;6.28;3.45;;;;;;;17.30;60.88;93995.88;4997138;28;20184;-65
2023/10/28 03:37:02;;;;;;;8.35;3.75;;;;;;;17.29;60.86;94001.38;4999416;28;20239;-65
2023/10/28 03:39:28;;;;;;;7.72;4.18;;;;;;;17.25;61.19;93987.72;4994108;28;20305;-65
2023/10/28 03:41:53;;;;;;;6.88;3.40;;;;;;;17.16;61.47;94004.97;4997179;28;20232;-66
2023/10/28 03:44:19;;;;;;;6.20;3.53;;;;;;;17.19;61.45;94007.22;5001273;28;20226;-66
2023/10/28 03:46:45;;;;;;;6.55;3.38;;;;;;;17.15;61.65;94003.34;5000283;28;20330;-66
2023/10/28 03:49:11;;;;;;;5.70;3.35;;;;;;;17.18;61.52;94003.72;5002426;28;20502;-66
2023/10/28 03:51:38;;;;;;;8.73;4.32;;;;;;;17.15;61.57;94014.78;4994524;28;20219;-66
2023/10/28 03:54:04;;;;;;;5.53;3.17;;;;;;;17.10;61.83;94013.81;4996194;28;20224;-66
2023/10/28 03:56:30;;;;;;;6.82;3.22;;;;;;;17.03;62.00;94005.09;4996302;28;20238;-65
2023/10/28 03:58:57;;;;;;;6.93;3.15;;;;;;;16.99;62.03;94031.25;5000441;28;20198;-66
2023/10/28 04:01:23;;;;;;;8.48;3.40;;;;;;;16.89;62.58;94026.44;4999454;28;20184;-66
2023/10/28 04:03:49;;;;;;;8.57;3.13;;;;;;;16.92;62.30;94027.81;5000911;28;20280;-66
2023/10/28 04:06:14;;;;;;;6.93;3.22;;;;;;;16.93;62.40;94034.78;5000521;28;20219;-66
2023/10/28 04:08:40;;;;;;;5.35;3.13;;;;;;;16.90;62.42;94032.56;5001946;28;20229;-66
2023/10/28 04:11:06;;;;;;;4.20;2.95;;;;;;;16.92;62.38;94033.97;4999264;28;20257;-67
2023/10/28 04:13:32;;;;;;;6.75;3.10;;;;;;;16.98;62.30;94035.75;5002483;28;20186;-65
2023/10/28 04:15:57;;;;;;;4.85;3.20;;;;;;;17.05;62.34;94030.38;4993489;28;20242;-65
2023/10/28 04:18:23;;;;;;;6.90;3.30;;;;;;;17.04;62.16;94033.28;4980177;28;20223;-65
2023/10/28 04:20:50;;;;;;;5.38;3.08;;;;;;;16.99;62.12;94031.25;4987932;28;20235;-65
2023/10/28 04:23:16;;;;;;;5.80;3.35;;;;;;;16.73;63.21;94035.69;5002267;28;20329;-65
2023/10/28 04:25:42;;;;;;;6.63;3.00;;;;;;;16.84;62.88;94042.19;5003362;28;20279;-64
2023/10/28 04:28:07;;;;;;;6.07;3.15;;;;;;;16.84;62.75;94036.88;5000858;28;20318;-65
2023/10/28 04:30:33;;;;;;;6.32;2.90;;;;;;;16.91;62.60;94050.09;4998781;28;20281;-66
2023/10/28 04:32:58;;;;;;;6.07;3.17;;;;;;;16.99;62.72;94039.22;4997462;28;20306;-66
2023/10/28 04:35:23;;;;;;;5.20;3.47;;;;;;;16.87;62.91;94046.25;5000349;28;20226;-66
2023/10/28 04:37:49;;;;;;;6.95;3.58;;;;;;;16.81;63.25;94039.94;4997573;28;20248;-67
2023/10/28 04:40:15;;;;;;;6.85;3.58;;;;;;;16.75;63.53;94046.06;5000522;28;20186;-66
2023/10/28 04:42:40;;;;;;;5.47;3.47;;;;;;;16.68;63.49;94040.81;5003571;28;20239;-66
2023/10/28 04:45:06;;;;;;;9.80;3.60;;;;;;;16.75;63.30;94049.53;4995836;28;20366;-66
2023/10/28 04:47:32;;;;;;;7.80;3.88;;;;;;;16.68;63.35;94046.13;5000884;28;20215;-64
2023/10/28 04:49:58;;;;;;;7.05;3.92;;;;;;;16.57;63.66;94049.44;4998123;28;20190;-65
2023/10/28 04:52:23;;;;;;;5.88;3.63;;;;;;;16.50;63.81;94056.63;4996070;28;20207;-66
2023/10/28 04:54:49;;;;;;;9.10;3.47;;;;;;;16.70;63.84;94059.97;4995398;28;20247;-65
2023/10/28 04:57:15;;;;;;;8.95;4.35;;;;;;;16.68;63.50;94061.22;4997461;28;20231;-66
2023/10/28 04:59:41;;;;;;;12.48;5.03;;;;;;;16.64;63.73;94063.50;5000622;28;20215;-65
2023/10/28 05:02:06;;;;;;;11.55;3.90;;;;;;;16.59;63.60;94047.38;5000936;28;20241;-65
2023/10/28 05:04:32;;;;;;;9.07;4.25;;;;;;;16.70;63.45;94070.59;4994206;28;20233;-65
2023/10/28 05:06:58;;;;;;;7.93;3.90;;;;;;;16.62;63.60;94070.03;4995160;28;20220;-66
2023/10/28 05:09:23;;;;;;;6.95;3.75;;;;;;;16.52;64.08;94071.31;5000947;28;20231;-66
2023/10/28 05:11:55;;;;;;;8.23;3.80;;;;;;;16.64;63.72;94086.56;4997898;28;20245;-65
2023/10/28 05:14:21;;;;;;;7.30;3.80;;;;;;;16.63;63.75;94087.63;5000338;28;20224;-66
2023/10/28 05:16:47;;;;;;;10.77;3.67;;;;;;;16.64;63.55;94089.22;4999885;28;20183;-66
2023/10/28 05:19:12;;;;;;;11.13;5.05;;;;;;;16.61;63.66;94081.69;4998367;28;20195;-66
2023/10/28 05:21:38;;;;;;;16.00;4.90;;;;;;;16.58;63.77;94098.84;4997630;28;20218;-66
2023/10/28 05:24:04;;;;;;;16.58;5.03;;;;;;;16.56;64.15;94095.59;5000877;28;20276;-66
2023/10/28 05:26:29;;;;;;;10.80;4.30;;;;;;;16.46;64.16;94101.34;4992850;28;20225;-64
2023/10/28 05:28:57;;;;;;;11.93;4.35;;;;;;;16.57;64.03;94099.84;4977169;28;20274;-66
2023/10/28 05:31:24;;;;;;;11.27;5.18;;;;;;;16.57;63.87;94093.75;4978388;28;20283;-65
2023/10/28 05:33:50;;;;;;;11.20;4.47;;;;;;;16.43;64.42;94106.25;4998396;28;20249;-67
2023/10/28 05:36:16;;;;;;;8.23;4.65;;;;;;;16.54;64.36;94117.03;5006462;28;20307;-67
2023/10/28 05:38:42;;;;;;;12.38;5.57;;;;;;;16.56;64.32;94118.66;5005094;28;20222;-65
2023/10/28 05:41:09;;;;;;;9.05;4.78;;;;;;;16.52;64.37;94116.44;4999631;28;20261;-66
2023/10/28 05:43:34;;;;;;;7.68;4.82;;;;;;;16.39;64.95;94113.84;5007452;28;20203;-68
2023/10/28 05:46:00;;;;;;;11.30;5.10;;;;;;;16.37;64.86;94129.13;5001452;28;20223;-68
2023/10/28 05:48:25;;;;;;;8.43;4.90;;;;;;;16.46;64.80;94122.56;4995995;28;20219;-68
2023/10/28 05:50:52;;;;;;;10.63;5.47;;;;;;;16.41;65.15;94135.66;4991183;28;20226;-72
2023/10/28 05:53:17;;;;;;;11.52;5.53;;;;;;;16.57;64.62;94133.56;5003273;28;20239;-71
2023/10/28 05:55:43;;;;;;;8.40;5.18;;;;;;;16.63;64.88;94138.03;5002468;28;20227;-72
2023/10/28 05:58:08;;;;;;;11.65;5.57;;;;;;;16.72;64.45;94144.72;5001884;28;20297;-71
2023/10/28 06:00:34;;;;;;;8.75;5.28;;;;;;;16.75;64.19;94145.09;5003804;28;20219;-71
2023/10/28 06:02:59;;;;;;;14.90;6.03;;;;;;;16.88;63.74;94154.09;5000453;28;20237;-72
2023/10/28 06:05:25;;;;;;;12.93;5.32;;;;;;;16.92;63.67;94158.78;5000398;28;20215;-71
2023/10/28 06:07:51;;;;;;;10.23;5.57;;;;;;;16.88;63.74;94162.06;4995738;28;20191;-72
2023/10/28 06:10:16;;;;;;;10.52;5.80;;;;;;;16.92;63.60;94158.78;5003714;28;20183;-69
2023/10/28 06:12:42;;;;;;;11.45;5.63;;;;;;;16.85;63.99;94165.13;4998129;28;20314;-74
2023/10/28 06:15:08;;;;;;;12.38;6.05;;;;;;;16.94;63.80;94161.19;4998270;28;20308;-74
2023/10/28 06:17:35;;;;;;;12.70;5.65;;;;;;;16.95;64.08;94168.16;5006169;28;20226;-73
2023/10/28 06:20:01;;;;;;;13.90;6.22;;;;;;;16.99;64.10;94164.03;5000489;28;20192;-74
2023/10/28 06:22:26;;;;;;;9.15;5.57;;;;;;;16.98;63.84;94165.88;4999738;28;20186;-71
2023/10/28 06:24:53;;;;;;;14.63;6.53;;;;;;;17.02;63.86;94174.22;5001307;28;20218;-73
2023/10/28 06:27:18;;;;;;;9.55;5.38;;;;;;;17.05;63.88;94178.31;5000987;28;20230;-74
2023/10/28 06:29:44;;;;;;;10.43;5.63;;;;;;;17.31;63.16;94201.25;5002710;28;20227;-74
2023/10/28 06:32:09;;;;;;;7.50;4.95;;;;;;;17.43;62.31;94199.56;5004360;28;20230;-73
2023/10/28 06:34:35;;;;;;;8.15;5.25;;;;;;;17.54;61.74;94193.56;5000739;28;20191;-72
2023/10/28 06:37:01;;;;;;;8.55;5.32;;;;;;;17.68;61.55;94210.22;4995572;28;20222;-74
2023/10/28 06:39:26;;;;;;;9.80;5.20;;;;;;;17.62;61.58;94209.25;5005563;28;20265;-73
2023/10/28 06:41:52;;;;;;;7.50;6.00;;;;;;;17.69;61.34;94211.03;5001392;28;20245;-72
2023/10/28 06:44:19;;;;;;;10.52;5.63;;;;;;;17.70;61.40;94202.06;5000379;28;20226;-73
2023/10/28 06:46:44;;;;;;;8.80;5.13;;;;;;;17.66;61.80;94209.63;4998735;28;20184;-72
2023/10/28 06:49:11;;;;;;;10.93;4.85;;;;;;;17.83;61.29;94224.06;5000464;28;20210;-74
2023/10/28 06:51:36;;;;;;;12.15;5.20;;;;;;;17.90;61.12;94228.53;4996432;28;20272;-73
2023/10/28 06:54:02;;;;;;;13.88;6.05;;;;;;;17.94;60.85;94230.53;5001565;28;20218;-74
2023/10/28 06:56:28;;;;;;;11.57;5.57;;;;;;;18.01;60.47;94239.25;5000262;28;20219;-74
2023/10/28 06:58:54;;;;;;;7.93;4.15;;;;;;;18.34;58.79;94240.03;5001202;28;20187;-74
2023/10/28 07:01:19;;;;;;;7.28;4.22;;;;;;;18.26;58.77;94233.97;5004761;28;20207;-74
2023/10/28 07:03:46;;;;;;;12.63;4.82;;;;;;;18.45;58.96;94224.16;5002522;28;20258;-72
2023/10/28 07:06:14;;;;;;;10.23;5.32;;;;;;;18.43;58.51;94239.53;4997311;28;20211;-73
2023/10/28 07:08:41;;;;;;;10.30;5.30;;;;;;;18.32;59.68;94237.59;5006436;28;20227;-72
2023/10/28 07:11:06;;;;;;;10.05;5.15;;;;;;;18.40;59.41;94245.28;4996986;28;20219;-73
2023/10/28 07:13:32;;;;;;;6.80;4.28;;;;;;;18.47;58.61;94254.03;5002261;28;20183;-73
2023/10/28 07:16:04;;;;;;;6.65;4.00;;;;;;;18.60;58.30;94254.94;4994127;28;20215;-73
2023/10/28 07:18:30;;;;;;;9.30;4.65;;;;;;;18.68;57.83;94254.66;4996263;28;20219;-70
2023/10/28 07:20:56;;;;;;;10.18;4.20;;;;;;;18.77;57.80;94261.34;4997253;28;20223;-70
2023/10/28 07:23:26;;;;;;;6.07;3.28;;;;;;;18.75;57.84;94257.28;4999830;28;20230;-73
2023/10/28 07:25:54;;;;;;;5.45;3.30;;;;;;;18.84;57.36;94259.41;5000655;28;20211;-74
2023/10/28 07:28:20;;;;;;;6.25;2.83;;;;;;;18.85;57.35;94269.06;4985453;28;20286;-75
2023/10/28 07:30:51;;;;;;;5.70;3.40;;;;;;;19.04;56.47;94258.41;5000677;28;20215;-74
2023/10/28 07:33:20;;;;;;;7.72;3.50;;;;;;;19.26;55.92;94250.75;4994895;28;20241;-73
2023/10/28 07:35:47;;;;;;;7.00;3.72;;;;;;;19.14;56.29;94264.03;5004450;28;20219;-80
2023/10/28 07:38:13;;;;;;;5.45;3.58;;;;;;;19.16;55.80;94261.94;4998590;28;20303;-75
2023/10/28 07:40:40;;;;;;;6.78;4.10;;;;;;;19.19;55.43;94256.16;5007040;28;20212;-74
2023/10/28 07:43:06;;;;;;;7.88;4.00;;;;;;;19.34;55.35;94245.94;5000459;28;20225;-74
2023/10/28 07:45:33;;;;;;;8.20;3.58;;;;;;;19.26;55.73;94259.56;4996295;28;20211;-76
2023/10/28 07:47:59;;;;;;;6.68;4.43;;;;;;;19.11;55.98;94269.78;5000612;28;20215;-71
2023/10/28 07:50:25;;;;;;;6.65;3.78;;;;;;;19.15;55.48;94274.47;5010066;28;20221;-71
2023/10/28 07:52:50;;;;;;;6.43;3.90;;;;;;;19.23;55.13;94273.34;5005093;28;20187;-73
2023/10/28 07:55:16;;;;;;;7.22;4.43;;;;;;;19.23;55.37;94272.53;4999319;28;20270;-75
2023/10/28 07:57:41;;;;;;;8.43;3.88;;;;;;;19.37;54.60;94261.47;5003177;28;20355;-73
2023/10/28 08:00:10;;;;;;;5.50;4.13;;;;;;;19.46;54.93;94274.50;5008530;28;20222;-72
2023/10/28 08:02:36;;;;;;;6.40;3.80;;;;;;;19.31;55.23;94282.91;5005785;28;20210;-73
2023/10/28 08:05:01;;;;;;;8.23;4.03;;;;;;;19.45;54.92;94284.34;5008654;28;20238;-72
2023/10/28 08:07:27;;;;;;;7.90;3.95;;;;;;;19.49;54.61;94277.53;5003530;28;20194;-72
2023/10/28 08:09:52;;;;;;;6.20;3.72;;;;;;;19.60;54.38;94271.44;5001942;28;20247;-72
2023/10/28 08:12:17;;;;;;;7.72;3.60;;;;;;;19.70;54.23;94286.94;5001034;28;20226;-73
2023/10/28 08:14:46;;;;;;;7.45;3.78;;;;;;;19.66;53.74;94291.09;4998401;28;20238;-68
2023/10/28 08:17:12;;;;;;;4.93;3.33;;;;;;;19.63;53.66;94283.50;5001568;28;20239;-71
2023/10/28 08:19:37;;;;;;;8.05;3.33;;;;;;;19.73;53.54;94277.69;4992856;28;20218;-70
2023/10/28 08:22:03;;;;;;;5.63;3.55;;;;;;;19.83;53.25;94281.44;5002408;28;20242;-69
2023/10/28 08:24:29;;;;;;;5.22;2.92;;;;;;;19.93;53.11;94288.06;5006518;28;20234;-69
2023/10/28 08:26:56;;;;;;;8.48;3.22;;;;;;;19.96;52.66;94283.06;5009570;28;20226;-70
2023/10/28 08:29:23;;;;;;;6.40;3.08;;;;;;;19.86;52.71;94284.66;4996953;28;20210;-71
2023/10/28 08:31:49;;;;;;;5.60;3.25;;;;;;;19.98;52.73;94273.00;5004489;28;20183;-70
2023/10/28 08:34:15;;;;;;;8.45;3.30;;;;;;;20.12;52.71;94275.47;5006798;28;20186;-71
2023/10/28 08:36:41;;;;;;;7.15;3.30;;;;;;;20.20;52.90;94286.59;5000777;28;20238;-70
2023/10/28 08:39:07;;;;;;;5.55;3.03;;;;;;;20.18;52.20;94294.06;4998642;28;20269;-71
2023/10/28 08:41:34;;;;;;;8.23;3.35;;;;;;;20.14;52.77;94290.19;4997348;28;20229;-71
2023/10/28 08:44:04;;;;;;;7.13;3.08;;;;;;;20.19;52.13;94298.34;5008971;28;20230;-71
2023/10/28 08:46:31;;;;;;;6.78;3.15;;;;;;;20.19;52.19;94303.69;4997261;28;20182;-70
2023/10/28 08:48:59;;;;;;;7.07;3.08;;;;;;;20.28;52.58;94302.28;5002247;28;20220;-71
2023/10/28 08:51:25;;;;;;;11.43;3.25;;;;;;;20.33;51.80;94295.47;4982998;28;20302;-69
2023/10/28 08:53:55;;;;;;;8.57;3.30;;;;;;;20.39;51.90;94294.53;5003941;28;20286;-71
2023/10/28 08:56:24;;;;;;;8.05;2.72;;;;;;;20.53;51.79;94290.63;4998340;28;20226;-70
2023/10/28 08:58:51;;;;;;;7.38;3.47;;;;;;;20.63;51.82;94298.88;4995899;28;20237;-69
2023/10/28 09:01:19;;;;;;;7.90;3.17;;;;;;;20.76;51.72;94299.72;5001773;28;20184;-72
2023/10/28 09:03:47;;;;;;;7.07;2.85;;;;;;;20.84;50.66;94302.84;4999951;28;20224;-71
2023/10/28 09:06:13;;;;;;;5.72;3.30;;;;;;;21.01;50.42;94297.63;4999521;28;20225;-70
2023/10/28 09:08:38;;;;;;;8.57;3.17;;;;;;;20.93;50.42;94296.13;5001047;28;20215;-71
2023/10/28 09:11:04;;;;;;;6.55;3.35;;;;;;;21.01;50.50;94292.28;5001320;28;20350;-71
2023/10/28 09:13:30;;;;;;;7.78;3.60;;;;;;;21.06;50.53;94299.56;5001312;28;20190;-71
2023/10/28 09:15:56;;;;;;;5.30;3.38;;;;;;;21.15;50.18;94299.00;5003115;28;20222;-71
2023/10/28 09:18:21;;;;;;;5.45;3.03;;;;;;;21.13;49.49;94295.72;5004747;28;20231;-71
2023/10/28 09:20:46;;;;;;;4.72;2.90;;;;;;;21.18;49.56;94287.03;5007582;28;20219;-71
2023/10/28 09:23:13;;;;;;;6.80;3.00;;;;;;;21.22;49.20;94293.50;5000106;28;20215;-70
2023/10/28 09:25:39;;;;;;;8.70;3.30;;;;;;;21.20;49.29;94289.44;4995586;28;20299;-71
2023/10/28 09:28:14;;;;;;;4.93;2.63;;;;;;;21.26;48.92;94294.69;4998880;28;20219;-71
2023/10/28 09:30:47;;;;;;;5.70;2.70;;;;;;;21.31;48.47;94292.09;5006618;28;20220;-71
2023/10/28 09:33:14;;;;;;;5.90;3.03;;;;;;;21.35;48.39;94292.44;4997413;28;20231;-73
2023/10/28 09:35:43;;;;;;;6.93;3.00;;;;;;;21.44;47.91;94285.72;5004261;28;20222;-71
2023/10/28 09:38:11;;;;;;;5.57;2.72;;;;;;;21.50;46.97;94284.75;5000608;28;21107;-71
2023/10/28 09:40:36;;;;;;;8.07;2.80;;;;;;;21.58;46.23;94284.38;4998981;28;20191;-71
2023/10/28 09:43:06;;;;;;;4.35;2.35;;;;;;;21.63;45.54;94277.53;4982747;28;20227;-73
2023/10/28 09:45:32;;;;;;;7.57;2.25;;;;;;;21.73;44.54;94280.38;5006613;28;20238;-71
2023/10/28 09:48:01;;;;;;;5.30;2.35;;;;;;;21.75;44.73;94283.63;5001728;28;20220;-70
2023/10/28 09:50:30;;;;;;;6.07;2.50;;;;;;;21.83;44.67;94288.59;4992730;28;20254;-70
2023/10/28 09:52:57;;;;;;;5.30;2.13;;;;;;;21.92;43.47;94281.81;4996305;28;20210;-70
2023/10/28 09:55:38;;;;;;;4.28;2.28;;;;;;;22.02;42.86;94265.09;5005268;28;20181;-71
2023/10/28 09:58:32;;;;;;;4.35;1.83;;;;;;;22.18;42.08;94268.88;4983208;28;20262;-71
2023/10/28 10:01:26;;;;;;;5.65;2.00;;;;;;;22.15;40.03;94267.47;4987624;28;20241;-73
2023/10/28 10:04:10;;;;;;;3.40;1.50;;;;;;;22.16;37.51;94266.44;4976088;28;20220;-71
2023/10/28 10:06:36;;;;;;;6.05;2.38;;;;;;;22.29;38.39;94268.00;4980285;28;20306;-70
2023/10/28 10:09:02;;;;;;;6.55;2.13;;;;;;;22.44;37.25;94254.88;4978176;28;20231;-70
2023/10/28 10:11:28;;;;;;;3.55;1.50;;;;;;;22.70;36.71;94241.88;4972765;28;20211;-70
2023/10/28 10:13:57;;;;;;;5.15;2.00;;;;;;;22.75;37.34;94247.31;4978326;28;20180;-69
2023/10/28 10:16:32;;;;;;;4.47;1.80;;;;;;;23.08;35.21;94251.81;4984668;28;20189;-70
2023/10/28 10:19:03;;;;;;;3.22;1.40;;;;;;;23.01;35.76;94245.00;4980245;28;20334;-70
2023/10/28 10:21:32;;;;;;;4.97;1.70;;;;;;;23.08;35.83;94246.44;4980543;28;20215;-69
2023/10/28 10:24:04;;;;;;;3.83;1.73;;;;;;;23.32;35.56;94252.38;4985552;28;20226;-70
2023/10/28 10:26:34;;;;;;;13.07;2.05;;;;;;;23.45;34.57;94247.69;4983889;28;20226;-70
2023/10/28 10:29:05;;;;;;;4.05;1.73;;;;;;;23.49;34.98;94244.25;4977376;28;20184;-71
2023/10/28 10:31:34;;;;;;;3.13;1.60;;;;;;;23.66;33.71;94240.69;4982911;28;20198;-70
2023/10/28 10:34:07;;;;;;;4.28;1.67;;;;;;;23.73;33.24;94241.31;4981744;28;20217;-71
2023/10/28 10:36:40;;;;;;;5.88;2.13;;;;;;;23.76;32.81;94252.38;4986983;28;20232;-71
2023/10/28 10:39:14;;;;;;;4.75;1.63;;;;;;;23.78;32.44;94255.59;4986735;28;20603;-71
2023/10/28 10:41:41;;;;;;;4.75;1.70;;;;;;;23.91;31.57;94249.03;4983885;28;20286;-71
2023/10/28 10:44:46;;;;;;;4.93;1.73;;;;;;;23.85;31.27;94233.13;4981126;28;20207;-71
2023/10/28 10:47:17;;;;;;;4.22;1.80;;;;;;;23.91;31.49;94238.28;4991249;28;20230;-72
2023/10/28 10:49:43;;;;;;;2.60;1.60;;;;;;;24.01;31.80;94242.97;5023959;28;20190;-69
2023/10/28 10:52:09;;;;;;;4.32;1.50;;;;;;;23.77;31.49;94240.56;5007293;28;20234;-71
2023/10/28 10:54:38;;;;;;;4.65;1.88;;;;;;;23.98;31.34;94233.53;5012065;28;20245;-69
2023/10/28 10:57:06;;;;;;;5.53;1.65;;;;;;;23.93;31.28;94233.47;5011601;28;20230;-71
2023/10/28 10:59:36;;;;;;;3.78;1.50;;;;;;;24.00;30.87;94241.31;5008749;28;20228;-70
2023/10/28 11:02:02;;;;;;;4.50;1.52;;;;;;;24.06;31.03;94236.81;5013921;28;20190;-70
2023/10/28 11:04:29;;;;;;;3.80;1.48;;;;;;;24.02;30.84;94239.19;5014346;28;20238;-71
2023/10/28 11:06:55;;;;;;;2.70;1.50;;;;;;;23.97;30.76;94241.84;5006279;28;20221;-70
2023/10/28 11:09:23;;;;;;;3.47;1.75;;;;;;;23.92;30.74;94237.25;5012527;28;20229;-72
2023/10/28 11:11:49;;;;;;;4.22;1.80;;;;;;;23.93;30.80;94243.41;5005712;28;20222;-70
2023/10/28 11:14:15;;;;;;;2.70;1.40;;;;;;;23.85;30.26;94250.06;5024152;28;20362;-69
2023/10/28 11:16:42;;;;;;;4.47;1.70;;;;;;;23.91;30.24;94240.16;5014436;28;20218;-69
2023/10/28 11:19:09;;;;;;;5.00;1.63;;;;;;;24.02;30.17;94241.09;4999213;28;20222;-69
2023/10/28 11:21:36;;;;;;;5.07;1.50;;;;;;;24.12;30.25;94233.13;5001244;28;20297;-70
2023/10/28 11:24:03;;;;;;;6.68;2.30;;;;;;;24.31;29.86;94237.03;5001244;28;20219;-70
2023/10/28 11:26:29;;;;;;;3.20;1.90;;;;;;;24.47;29.73;94237.19;5006646;28;20433;-70
2023/10/28 11:28:59;;;;;;;4.68;2.22;;;;;;;24.55;29.69;94240.22;5001297;28;20258;-71
2023/10/28 11:31:49;;;;;;;;;;;;;;;;;;;;;